createdAt,value
2022-07-27T00:01:51.227Z,17.36
2022-07-27T00:04:21.758Z,17.31
2022-07-27T00:06:49.034Z,17.39
2022-07-27T00:09:18.343Z,17.43
2022-07-27T00:11:46.469Z,17.37
2022-07-27T00:14:13.479Z,17.31
2022-07-27T00:16:40.468Z,17.23
2022-07-27T00:19:09.148Z,17.09
2022-07-27T00:21:44.827Z,17.02
2022-07-27T00:24:13.343Z,16.97
2022-07-27T00:26:40.168Z,17.09
2022-07-27T00:29:07.097Z,16.95
2022-07-27T00:31:34.062Z,16.80
2022-07-27T00:34:01.008Z,16.86
2022-07-27T00:36:27.962Z,16.63
2022-07-27T00:38:54.848Z,16.87
2022-07-27T00:41:21.762Z,16.10
2022-07-27T00:43:55.938Z,16.48
2022-07-27T00:46:24.291Z,16.01
2022-07-27T00:48:51.888Z,16.14
2022-07-27T00:51:20.550Z,16.44
2022-07-27T00:53:48.666Z,16.44
2022-07-27T00:56:16.363Z,16.36
2022-07-27T00:58:47.383Z,16.24
2022-07-27T01:01:14.814Z,16.23
2022-07-27T01:03:41.648Z,16.07
2022-07-27T01:06:08.854Z,16.13
2022-07-27T01:08:36.878Z,16.21
2022-07-27T01:11:04.460Z,16.35
2022-07-27T01:13:31.546Z,16.52
2022-07-27T01:15:59.213Z,16.54
2022-07-27T01:18:35.145Z,16.10
2022-07-27T01:21:04.816Z,16.26
2022-07-27T01:23:34.449Z,16.24
2022-07-27T01:26:02.137Z,16.29
2022-07-27T01:28:29.122Z,16.30
2022-07-27T01:30:56.368Z,16.40
2022-07-27T01:33:26.117Z,16.54
2022-07-27T01:35:57.318Z,16.45
2022-07-27T01:38:24.291Z,16.61
2022-07-27T01:40:52.341Z,16.67
2022-07-27T01:43:19.454Z,16.46
2022-07-27T01:45:46.375Z,16.70
2022-07-27T01:48:13.329Z,16.56
2022-07-27T01:50:40.579Z,16.69
2022-07-27T01:53:11.732Z,16.70
2022-07-27T01:55:39.351Z,16.84
2022-07-27T01:58:07.508Z,16.76
2022-07-27T02:00:35.239Z,16.92
2022-07-27T02:03:04.273Z,17.04
2022-07-27T02:05:31.342Z,16.97
2022-07-27T02:07:58.272Z,16.86
2022-07-27T02:10:25.279Z,16.52
2022-07-27T02:12:52.517Z,16.46
2022-07-27T02:15:22.621Z,16.80
2022-07-27T02:17:53.145Z,17.00
2022-07-27T02:20:22.561Z,17.08
2022-07-27T02:22:50.816Z,16.97
2022-07-27T02:25:19.207Z,17.10
2022-07-27T02:27:47.562Z,16.93
2022-07-27T02:30:17.801Z,17.11
2022-07-27T02:32:46.337Z,17.04
2022-07-27T02:35:19.224Z,16.80
2022-07-27T02:37:48.474Z,16.36
2022-07-27T02:40:19.397Z,16.27
2022-07-27T02:42:47.126Z,16.17
2022-07-27T02:45:17.396Z,16.11
2022-07-27T02:47:44.987Z,16.12
2022-07-27T02:50:12.344Z,16.07
2022-07-27T02:52:39.572Z,15.96
2022-07-27T02:55:07.605Z,15.91
2022-07-27T02:57:37.784Z,16.05
2022-07-27T03:00:07.603Z,16.04
2022-07-27T03:02:34.449Z,15.99
2022-07-27T03:05:01.333Z,15.85
2022-07-27T03:07:28.284Z,15.78
2022-07-27T03:09:55.132Z,15.68
2022-07-27T03:12:21.960Z,15.65
2022-07-27T03:14:48.817Z,15.55
2022-07-27T03:17:15.623Z,15.48
2022-07-27T03:19:42.462Z,15.47
2022-07-27T03:22:09.542Z,15.43
2022-07-27T03:24:36.564Z,15.38
2022-07-27T03:27:03.464Z,15.37
2022-07-27T03:29:30.280Z,15.39
2022-07-27T03:31:57.137Z,15.33
2022-07-27T03:34:26.430Z,15.29
2022-07-27T03:36:53.227Z,15.25
2022-07-27T03:39:20.067Z,15.21
2022-07-27T03:41:46.861Z,15.19
2022-07-27T03:44:13.701Z,15.30
2022-07-27T03:46:40.542Z,15.15
2022-07-27T03:49:14.824Z,15.17
2022-07-27T03:51:42.547Z,15.06
2022-07-27T03:54:09.549Z,14.99
2022-07-27T03:56:36.434Z,14.96
2022-07-27T03:59:03.364Z,15.04
2022-07-27T04:01:31.066Z,14.87
2022-07-27T04:03:58.019Z,14.68
2022-07-27T04:06:25.721Z,14.66
2022-07-27T04:08:57.502Z,14.67
2022-07-27T04:11:26.668Z,14.61
2022-07-27T04:13:56.543Z,14.68
2022-07-27T04:16:24.373Z,14.70
2022-07-27T04:18:56.055Z,14.47
2022-07-27T04:21:22.918Z,14.32
2022-07-27T04:23:54.334Z,14.09
2022-07-27T04:26:21.149Z,14.20
2022-07-27T04:28:47.956Z,14.29
2022-07-27T04:31:14.967Z,14.54
2022-07-27T04:33:41.845Z,14.51
2022-07-27T04:36:09.431Z,14.90
2022-07-27T04:38:36.578Z,14.99
2022-07-27T04:41:03.425Z,14.95
2022-07-27T04:43:30.264Z,15.30
2022-07-27T04:45:57.209Z,15.30
2022-07-27T04:48:24.109Z,15.65
2022-07-27T04:50:51.841Z,15.82
2022-07-27T04:53:18.796Z,15.94
2022-07-27T04:55:46.541Z,16.12
2022-07-27T04:58:14.722Z,16.48
2022-07-27T05:00:42.963Z,16.56
2022-07-27T05:03:11.000Z,16.77
2022-07-27T05:05:38.050Z,16.77
2022-07-27T05:08:05.278Z,16.75
2022-07-27T05:10:32.230Z,16.81
2022-07-27T05:12:59.222Z,16.86
2022-07-27T05:15:26.202Z,16.83
2022-07-27T05:17:53.667Z,16.87
2022-07-27T05:20:20.678Z,16.60
2022-07-27T05:22:47.647Z,16.75
2022-07-27T05:25:14.524Z,16.53
2022-07-27T05:27:53.923Z,16.80
2022-07-27T05:30:23.949Z,16.83
2022-07-27T05:32:50.898Z,16.49
2022-07-27T05:35:17.808Z,16.54
2022-07-27T05:37:44.625Z,16.82
2022-07-27T05:40:12.316Z,16.90
2022-07-27T05:42:41.759Z,16.87
2022-07-27T05:45:09.566Z,16.99
2022-07-27T05:47:36.617Z,17.37
2022-07-27T05:50:04.138Z,17.66
2022-07-27T05:52:31.126Z,17.69
2022-07-27T05:54:57.937Z,17.85
2022-07-27T05:57:24.866Z,18.06
2022-07-27T05:59:54.575Z,18.36
2022-07-27T06:02:25.341Z,18.39
2022-07-27T06:04:53.596Z,18.15
2022-07-27T06:07:39.894Z,18.39
2022-07-27T06:10:08.722Z,18.69
2022-07-27T06:12:40.510Z,19.04
2022-07-27T06:15:09.114Z,19.09
2022-07-27T06:17:36.538Z,18.96
2022-07-27T06:20:08.072Z,18.84
2022-07-27T06:23:09.097Z,19.10
2022-07-27T06:25:36.257Z,19.44
2022-07-27T06:28:04.563Z,18.99
2022-07-27T06:30:31.911Z,19.41
2022-07-27T06:32:59.644Z,19.88
2022-07-27T06:35:26.752Z,19.83
2022-07-27T06:37:54.127Z,19.86
2022-07-27T06:40:21.515Z,19.98
2022-07-27T06:42:48.842Z,19.78
2022-07-27T06:45:16.730Z,19.74
2022-07-27T06:47:49.497Z,19.64
2022-07-27T06:50:20.336Z,20.05
2022-07-27T06:52:48.105Z,20.31
2022-07-27T06:55:15.176Z,20.36
2022-07-27T06:57:42.994Z,20.10
2022-07-27T07:00:11.743Z,20.00
2022-07-27T07:02:40.254Z,20.61
2022-07-27T07:05:07.243Z,20.15
2022-07-27T07:07:34.110Z,20.50
2022-07-27T07:10:00.962Z,20.83
2022-07-27T07:12:28.514Z,20.55
2022-07-27T07:14:55.408Z,19.95
2022-07-27T07:17:22.283Z,20.76
2022-07-27T07:19:49.448Z,20.14
2022-07-27T07:22:16.291Z,20.82
2022-07-27T07:24:43.177Z,20.80
2022-07-27T07:27:10.066Z,20.66
2022-07-27T07:29:36.963Z,19.88
2022-07-27T07:32:03.880Z,20.43
2022-07-27T07:34:30.742Z,20.85
2022-07-27T07:36:58.166Z,20.58
2022-07-27T07:39:31.013Z,20.33
2022-07-27T07:41:58.462Z,20.48
2022-07-27T07:44:25.534Z,20.29
2022-07-27T07:46:52.511Z,20.08
2022-07-27T07:49:21.717Z,19.84
2022-07-27T07:52:06.552Z,20.38
2022-07-27T07:54:33.567Z,19.94
2022-07-27T07:57:00.829Z,19.75
2022-07-27T07:59:27.690Z,19.72
2022-07-27T08:01:54.643Z,19.91
2022-07-27T08:04:21.493Z,19.80
2022-07-27T08:06:48.405Z,20.15
2022-07-27T08:09:17.035Z,19.90
2022-07-27T08:11:44.488Z,19.75
2022-07-27T08:14:11.335Z,19.98
2022-07-27T08:16:38.915Z,20.04
2022-07-27T08:19:06.016Z,20.52
2022-07-27T08:21:36.386Z,20.50
2022-07-27T08:24:03.405Z,20.40
2022-07-27T08:26:30.311Z,20.21
2022-07-27T08:28:57.144Z,20.45
2022-07-27T08:31:47.495Z,20.86
2022-07-27T08:34:13.231Z,20.90
2022-07-27T08:36:40.272Z,20.83
2022-07-27T08:39:08.703Z,20.83
2022-07-27T08:41:42.042Z,21.11
2022-07-27T08:44:14.176Z,21.18
2022-07-27T08:46:45.636Z,20.95
2022-07-27T08:49:13.294Z,21.01
2022-07-27T08:51:46.852Z,21.36
2022-07-27T08:54:14.303Z,21.62
2022-07-27T08:56:41.310Z,21.59
2022-07-27T08:59:08.213Z,21.32
2022-07-27T09:01:38.730Z,21.41
2022-07-27T09:04:07.729Z,21.50
2022-07-27T09:06:54.201Z,21.41
2022-07-27T09:09:22.223Z,21.62
2022-07-27T09:12:07.493Z,21.07
2022-07-27T09:14:36.522Z,21.77
2022-07-27T09:20:18.558Z,21.96
2022-07-27T09:22:53.794Z,21.71
2022-07-27T09:25:44.977Z,21.94
2022-07-27T09:28:10.667Z,22.09
2022-07-27T09:30:44.239Z,21.80
2022-07-27T09:33:15.412Z,21.88
2022-07-27T09:35:42.309Z,22.33
2022-07-27T09:38:25.414Z,22.08
2022-07-27T09:41:03.193Z,22.53
2022-07-27T09:46:36.788Z,22.12
2022-07-27T09:49:05.093Z,22.56
2022-07-27T09:51:59.290Z,22.33
2022-07-27T09:54:21.080Z,22.31
2022-07-27T09:56:58.855Z,22.77
2022-07-27T09:59:25.730Z,22.68
2022-07-27T10:01:56.379Z,21.66
2022-07-27T10:04:24.440Z,21.77
2022-07-27T10:07:02.762Z,21.91
2022-07-27T10:09:31.225Z,21.96
2022-07-27T10:11:58.472Z,22.43
2022-07-27T10:14:25.815Z,22.92
2022-07-27T10:16:57.793Z,22.33
2022-07-27T10:19:37.065Z,22.78
2022-07-27T10:22:03.887Z,22.59
2022-07-27T10:24:34.740Z,23.02
2022-07-27T10:27:20.185Z,22.94
2022-07-27T10:29:51.835Z,22.85
2022-07-27T10:32:31.514Z,22.67
2022-07-27T10:34:59.740Z,22.63
2022-07-27T10:37:34.222Z,22.84
2022-07-27T10:40:23.639Z,22.10
2022-07-27T10:42:54.453Z,22.04
2022-07-27T10:45:22.380Z,22.30
2022-07-27T10:47:52.971Z,22.79
2022-07-27T10:50:23.823Z,23.16
2022-07-27T10:52:59.687Z,23.33
2022-07-27T10:55:32.668Z,23.04
2022-07-27T10:58:14.411Z,23.45
2022-07-27T11:00:54.820Z,23.23
2022-07-27T11:03:33.075Z,22.92
2022-07-27T11:06:18.283Z,23.23
2022-07-27T11:09:17.042Z,22.69
2022-07-27T11:11:38.809Z,22.79
2022-07-27T11:14:05.934Z,22.47
2022-07-27T11:16:36.968Z,22.38
2022-07-27T11:19:18.039Z,23.03
2022-07-27T11:21:46.629Z,22.65
2022-07-27T11:24:19.312Z,22.53
2022-07-27T11:26:49.444Z,22.49
2022-07-27T11:29:18.436Z,22.70
2022-07-27T11:31:57.218Z,23.18
2022-07-27T11:34:30.334Z,22.58
2022-07-27T11:37:03.026Z,22.32
2022-07-27T11:39:59.731Z,21.94
2022-07-27T11:42:23.474Z,22.07
2022-07-27T11:44:53.123Z,21.58
2022-07-27T11:47:24.004Z,21.84
2022-07-27T11:49:51.395Z,22.11
2022-07-27T11:52:18.825Z,22.43
2022-07-27T11:54:52.420Z,22.70
2022-07-27T11:57:20.718Z,22.83
2022-07-27T11:59:47.838Z,23.79
2022-07-27T12:02:22.182Z,24.52
2022-07-27T12:04:52.341Z,24.62
2022-07-27T12:07:29.867Z,23.85
2022-07-27T12:09:58.694Z,24.37
2022-07-27T12:12:28.405Z,24.13
2022-07-27T12:15:11.652Z,24.60
2022-07-27T12:17:57.345Z,24.32
2022-07-27T12:20:32.567Z,24.38
2022-07-27T12:23:08.314Z,24.22
2022-07-27T12:25:36.323Z,25.23
2022-07-27T12:28:06.437Z,24.81
2022-07-27T12:30:33.360Z,25.19
2022-07-27T12:33:02.860Z,25.52
2022-07-27T12:35:46.089Z,25.18
2022-07-27T12:38:13.897Z,25.53
2022-07-27T12:41:00.853Z,24.41
2022-07-27T12:43:28.586Z,24.28
2022-07-27T12:45:55.794Z,24.10
2022-07-27T12:48:25.444Z,23.70
2022-07-27T12:51:06.234Z,24.25
2022-07-27T12:53:35.060Z,24.60
2022-07-27T12:56:06.492Z,24.41
2022-07-27T12:58:34.188Z,24.78
2022-07-27T13:01:01.134Z,23.96
2022-07-27T13:03:28.094Z,24.29
2022-07-27T13:05:54.991Z,23.80
2022-07-27T13:08:22.532Z,24.45
2022-07-27T13:10:53.261Z,25.00
2022-07-27T13:13:24.527Z,24.71
2022-07-27T13:15:52.117Z,24.16
2022-07-27T13:18:23.719Z,24.28
2022-07-27T13:20:51.713Z,24.56
2022-07-27T13:23:18.710Z,24.23
2022-07-27T13:25:45.532Z,24.40
2022-07-27T13:28:12.949Z,25.07
2022-07-27T13:30:40.563Z,24.03
2022-07-27T13:33:08.051Z,24.60
2022-07-27T13:35:35.128Z,25.55
2022-07-27T13:38:02.234Z,26.18
2022-07-27T13:40:29.412Z,25.68
2022-07-27T13:42:56.358Z,25.21
2022-07-27T13:45:23.652Z,26.34
2022-07-27T13:47:50.589Z,25.58
2022-07-27T13:50:19.391Z,25.57
2022-07-27T13:52:48.438Z,25.25
2022-07-27T13:55:17.427Z,26.06
2022-07-27T13:57:45.451Z,26.37
2022-07-27T14:00:13.625Z,26.13
2022-07-27T14:02:41.844Z,26.77
2022-07-27T14:05:14.290Z,26.06
2022-07-27T14:07:42.596Z,25.74
2022-07-27T14:10:28.817Z,25.46
2022-07-27T14:13:08.123Z,24.62
2022-07-27T14:15:52.817Z,25.34
2022-07-27T14:18:27.226Z,26.89
2022-07-27T14:20:56.087Z,26.50
2022-07-27T14:23:25.045Z,27.44
2022-07-27T14:25:52.715Z,26.70
2022-07-27T14:28:20.005Z,25.60
2022-07-27T14:30:47.508Z,25.43
2022-07-27T14:33:15.736Z,25.97
2022-07-27T14:35:42.799Z,26.06
2022-07-27T14:38:10.345Z,26.03
2022-07-27T14:40:38.222Z,25.53
2022-07-27T14:43:06.378Z,25.79
2022-07-27T14:45:44.769Z,26.14
2022-07-27T14:48:21.543Z,26.84
2022-07-27T14:50:55.395Z,25.73
2022-07-27T14:53:22.760Z,26.21
2022-07-27T14:55:49.712Z,25.73
2022-07-27T14:58:17.063Z,25.10
2022-07-27T15:00:44.171Z,25.24
2022-07-27T15:03:14.570Z,25.84
2022-07-27T15:05:49.598Z,26.19
2022-07-27T15:08:19.951Z,26.04
2022-07-27T15:10:47.991Z,25.26
2022-07-27T15:13:14.992Z,23.90
2022-07-27T15:15:42.064Z,23.76
2022-07-27T15:18:09.096Z,23.62
2022-07-27T15:20:36.027Z,24.41
2022-07-27T15:23:04.105Z,24.55
2022-07-27T15:25:31.125Z,25.11
2022-07-27T15:27:58.324Z,25.26
2022-07-27T15:30:25.189Z,24.91
2022-07-27T15:32:52.041Z,24.78
2022-07-27T15:35:19.137Z,24.74
2022-07-27T15:37:54.074Z,24.61
2022-07-27T15:40:38.008Z,24.37
2022-07-27T15:43:06.821Z,23.65
2022-07-27T15:45:38.471Z,23.85
2022-07-27T15:48:08.409Z,23.69
2022-07-27T15:50:36.471Z,23.57
2022-07-27T15:53:04.010Z,23.98
2022-07-27T15:55:30.836Z,23.79
2022-07-27T15:57:58.138Z,22.56
2022-07-27T16:00:25.940Z,23.44
2022-07-27T16:02:52.949Z,23.05
2022-07-27T16:05:20.841Z,23.49
2022-07-27T16:07:47.674Z,23.28
2022-07-27T16:10:14.514Z,23.24
2022-07-27T16:12:41.345Z,22.98
2022-07-27T16:15:08.689Z,23.04
2022-07-27T16:17:35.500Z,23.86
2022-07-27T16:20:02.570Z,23.62
2022-07-27T16:22:30.243Z,24.07
2022-07-27T16:24:57.190Z,24.49
2022-07-27T16:27:24.353Z,24.51
2022-07-27T16:29:51.454Z,23.20
2022-07-27T16:32:18.370Z,23.50
2022-07-27T16:34:46.132Z,23.25
2022-07-27T16:37:13.048Z,23.43
2022-07-27T16:39:39.885Z,23.84
2022-07-27T16:42:06.830Z,23.09
2022-07-27T16:44:35.512Z,23.24
2022-07-27T16:47:05.586Z,23.36
2022-07-27T16:49:36.065Z,22.29
2022-07-27T16:52:04.926Z,21.59
2022-07-27T16:54:37.162Z,21.81
2022-07-27T16:57:07.009Z,21.70
2022-07-27T16:59:34.075Z,20.46
2022-07-27T17:02:00.943Z,20.62
2022-07-27T17:04:28.162Z,20.85
2022-07-27T17:06:55.150Z,20.87
2022-07-27T17:09:22.064Z,21.42
2022-07-27T17:11:51.302Z,20.65
2022-07-27T17:14:21.394Z,20.99
2022-07-27T17:16:52.235Z,20.87
2022-07-27T17:19:19.561Z,21.09
2022-07-27T17:21:46.559Z,21.25
2022-07-27T17:24:13.653Z,20.43
2022-07-27T17:26:40.495Z,20.55
2022-07-27T17:29:07.394Z,20.79
2022-07-27T17:31:34.330Z,21.36
2022-07-27T17:34:01.389Z,21.72
2022-07-27T17:36:28.412Z,21.92
2022-07-27T17:38:55.491Z,21.62
2022-07-27T17:41:25.559Z,21.65
2022-07-27T17:43:55.383Z,21.28
2022-07-27T17:46:23.285Z,20.06
2022-07-27T17:48:51.652Z,21.26
2022-07-27T17:51:18.945Z,22.06
2022-07-27T17:53:46.745Z,22.99
2022-07-27T17:56:13.927Z,22.83
2022-07-27T17:58:42.810Z,22.28
2022-07-27T18:01:09.738Z,23.17
2022-07-27T18:03:36.734Z,22.18
2022-07-27T18:06:03.897Z,21.58
2022-07-27T18:08:31.137Z,21.77
2022-07-27T18:10:57.972Z,21.86
2022-07-27T18:13:39.023Z,22.37
2022-07-27T18:16:09.268Z,22.84
2022-07-27T18:18:37.263Z,22.62
2022-07-27T18:21:05.124Z,22.54
2022-07-27T18:23:32.728Z,21.91
2022-07-27T18:25:59.699Z,21.64
2022-07-27T18:28:26.604Z,21.45
2022-07-27T18:30:53.715Z,20.96
2022-07-27T18:33:21.090Z,20.67
2022-07-27T18:35:48.511Z,20.43
2022-07-27T18:38:16.771Z,20.82
2022-07-27T18:40:47.214Z,20.36
2022-07-27T18:43:16.039Z,20.46
2022-07-27T18:45:43.148Z,20.83
2022-07-27T18:48:10.786Z,20.70
2022-07-27T18:50:39.862Z,20.89
2022-07-27T18:53:08.343Z,21.18
2022-07-27T18:55:35.622Z,20.60
2022-07-27T18:58:02.492Z,20.93
2022-07-27T19:00:29.588Z,20.85
2022-07-27T19:02:58.024Z,20.99
2022-07-27T19:05:32.479Z,20.73
2022-07-27T19:08:13.180Z,20.86
2022-07-27T19:10:44.559Z,20.65
2022-07-27T19:13:12.022Z,20.49
2022-07-27T19:15:39.062Z,20.39
2022-07-27T19:18:07.319Z,20.39
2022-07-27T19:20:36.617Z,20.23
2022-07-27T19:23:07.373Z,20.28
2022-07-27T19:25:34.555Z,20.19
2022-07-27T19:28:02.862Z,19.92
2022-07-27T19:30:29.958Z,19.75
2022-07-27T19:32:57.083Z,19.79
2022-07-27T19:35:24.105Z,19.42
2022-07-27T19:37:50.961Z,19.29
2022-07-27T19:40:44.093Z,19.04
2022-07-27T19:43:06.026Z,19.41
2022-07-27T19:45:33.938Z,18.98
2022-07-27T19:48:01.631Z,18.90
2022-07-27T19:50:28.728Z,18.61
2022-07-27T19:52:55.578Z,18.57
2022-07-27T19:55:24.915Z,18.48
2022-07-27T19:57:52.001Z,18.40
2022-07-27T20:00:18.944Z,18.16
2022-07-27T20:02:47.841Z,18.60
2022-07-27T20:05:14.905Z,19.04
2022-07-27T20:07:43.357Z,18.88
2022-07-27T20:10:10.700Z,18.71
2022-07-27T20:12:38.265Z,18.68
2022-07-27T20:15:06.566Z,18.67
2022-07-27T20:17:36.975Z,18.66
2022-07-27T20:20:07.607Z,18.71
2022-07-27T20:22:34.453Z,18.76
2022-07-27T20:25:02.341Z,18.61
2022-07-27T20:27:29.656Z,18.35
2022-07-27T20:29:56.672Z,18.46
2022-07-27T20:32:25.857Z,18.37
2022-07-27T20:34:52.843Z,18.31
2022-07-27T20:37:20.142Z,18.17
2022-07-27T20:39:46.978Z,17.25
2022-07-27T20:42:13.809Z,17.36
2022-07-27T20:44:40.706Z,17.22
2022-07-27T20:47:08.929Z,17.00
2022-07-27T20:49:35.768Z,16.36
2022-07-27T20:52:02.606Z,16.22
2022-07-27T20:54:29.913Z,16.65
2022-07-27T20:56:58.061Z,16.66
2022-07-27T20:59:24.947Z,16.69
2022-07-27T21:01:52.836Z,16.66
2022-07-27T21:04:20.478Z,16.43
2022-07-27T21:06:47.574Z,16.56
2022-07-27T21:09:15.411Z,16.62
2022-07-27T21:11:42.618Z,16.44
2022-07-27T21:14:09.707Z,16.34
2022-07-27T21:16:37.114Z,16.37
2022-07-27T21:19:04.249Z,16.29
2022-07-27T21:21:31.141Z,16.21
2022-07-27T21:24:17.325Z,16.18
2022-07-27T21:26:50.043Z,16.09
2022-07-27T21:29:17.847Z,15.81
2022-07-27T21:31:46.682Z,16.00
2022-07-27T21:34:17.190Z,16.03
2022-07-27T21:36:45.112Z,15.97
2022-07-27T21:39:12.333Z,15.98
2022-07-27T21:41:39.450Z,15.91
2022-07-27T21:44:06.330Z,15.84
2022-07-27T21:46:33.305Z,15.75
2022-07-27T21:49:00.241Z,15.64
2022-07-27T21:51:27.249Z,15.70
2022-07-27T21:53:54.968Z,15.75
2022-07-27T21:56:21.878Z,15.75
2022-07-27T21:58:49.029Z,15.52
2022-07-27T22:01:17.018Z,15.57
2022-07-27T22:03:44.714Z,15.61
2022-07-27T22:06:12.133Z,15.52
2022-07-27T22:08:39.077Z,15.65
2022-07-27T22:11:06.195Z,15.61
2022-07-27T22:13:36.603Z,15.49
2022-07-27T22:16:04.341Z,15.51
2022-07-27T22:18:31.839Z,15.49
2022-07-27T22:20:58.686Z,15.63
2022-07-27T22:23:28.009Z,15.57
2022-07-27T22:25:55.378Z,15.56
2022-07-27T22:28:26.107Z,15.55
2022-07-27T22:31:00.061Z,15.49
2022-07-27T22:33:40.812Z,15.50
2022-07-27T22:36:12.136Z,15.33
2022-07-27T22:38:39.239Z,15.30
2022-07-27T22:41:06.127Z,15.37
2022-07-27T22:43:32.978Z,15.28
2022-07-27T22:46:00.307Z,15.33
2022-07-27T22:48:27.334Z,15.32
2022-07-27T22:50:54.285Z,15.40
2022-07-27T22:53:22.198Z,15.37
2022-07-27T22:55:49.237Z,15.28
2022-07-27T22:58:16.406Z,15.28
2022-07-27T23:00:43.361Z,15.20
2022-07-27T23:03:10.181Z,15.16
2022-07-27T23:05:37.186Z,15.01
2022-07-27T23:08:04.159Z,14.96
2022-07-27T23:10:46.055Z,14.82
2022-07-27T23:13:18.941Z,14.74
2022-07-27T23:15:46.750Z,14.58
2022-07-27T23:18:14.256Z,14.58
2022-07-27T23:20:41.344Z,14.66
2022-07-27T23:23:15.320Z,14.66
2022-07-27T23:25:44.337Z,14.56
2022-07-27T23:28:11.868Z,14.54
2022-07-27T23:30:38.853Z,14.38
2022-07-27T23:33:06.115Z,14.43
2022-07-27T23:35:33.219Z,14.48
2022-07-27T23:38:00.351Z,14.49
2022-07-27T23:40:27.946Z,14.44
2022-07-27T23:42:54.935Z,14.31
2022-07-27T23:45:22.008Z,14.30
2022-07-27T23:47:48.779Z,14.29
2022-07-27T23:50:15.759Z,14.36
2022-07-27T23:52:42.591Z,14.32
2022-07-27T23:55:09.720Z,14.29
2022-07-27T23:57:36.531Z,14.34
